Airfield :
LOGIN :

Register | Disclaimer

   EN    FR    IT 

 










Legend :    VFR   Marginal VFR   IFR   Intensive IFR   Very Intensive IFR
Visi :
Ceiling :
>= 8 km
>= 3000ft
5 to 8 km
1000 to 3000 ft
1500m to 5 km
500 to 1000 ft
800 to 1500m
200 to 500 ft
< 800m
< 200 ft
Symbols :   Thunderstorms  Fog  Heavy snow  Heavy precipitations  Wind > 20 kt
SIGMETs :     Misc.  Thunderstorms  Icing  Turbulence  Mountain Waves  Volcanic Ashes






- Airport Elevation : -15 ft
- IATA code : RTM


EHRD - Rotterdam Zestienhoven

CURRENT METAR :
  • 231425Z AUTO 25012KT 210V300 9999 SCT032 19/11 Q1014 NOSIG

EXPIRED METARs :
  • 231355Z AUTO 25012KT 210V300 9999 FEW029 19/11 Q1014 NOSIG
  • 231325Z AUTO 25011KT 210V290 9999 FEW026 19/12 Q1014 NOSIG
  • 231255Z AUTO 25013KT 200V290 9999 SCT025 BKN031 18/12 Q1014 NOSIG
  • 231225Z AUTO 23016KT 190V260 9999 FEW029 20/12 Q1014 NOSIG
  • 231155Z AUTO 23015KT 200V270 9999 SCT028 BKN033 BKN037 19/12 Q1014 NOSIG
  • 231125Z AUTO 23014KT 200V270 9999 SCT026 SCT030 19/12 Q1014 NOSIG
  • 231055Z AUTO 23015KT 200V260 9999 FEW027 SCT034 BKN040 19/12 Q1014 NOSIG
  • 231025Z AUTO 23012KT 190V260 9999 FEW022/// BKN034/// BKN038/// 18/12 Q1014 NOSIG
  • 230955Z AUTO 22013KT 180V260 9999 FEW022 BKN034 18/12 Q1014 NOSIG

TAF TAF EHRD
Valid from the 23 at 12:00 until the 24 at 18:00 UTC


231110Z 2312/2418 24012KT 9999 SCT020
BECMG 2318/2321 16004KT CAVOK
PROB30 2402/2405 2000 BR BCFG
TEMPO 2411/2418 6000 SHRA RA BKN040 FEW045CB
PROB40
TEMPO 2411/2414 3000 SHRA TSRA SCT025CB BKN030



MET'MAP, your aeronautical weather chart ! - Copyright ORBIFLY December 2007 - Disclaimer

ORBIFLY MET'MAP TEAM :

Programming & Development : Alexandra Zaïnal
Original concept : Baudouin d'Aumeries
Technical & hardware support : Manuel Goepfert
Assistance : Marc-Olivier Méhu




SOURCES & CREDITS :

   NOAA